sensor_id;sensor_type;location;lat;lon;timestamp;P1;durP1;ratioP1;P2;durP2;ratioP2
42702;SDS011;28341;52.064;4.920;2023-05-07T00:00:32;31.73;;;27.45;;
42702;SDS011;28341;52.064;4.920;2023-05-07T00:02:37;31.95;;;28.60;;
42702;SDS011;28341;52.064;4.920;2023-05-07T00:04:41;33.72;;;29.77;;
42702;SDS011;28341;52.064;4.920;2023-05-07T00:06:48;33.58;;;28.17;;
42702;SDS011;28341;52.064;4.920;2023-05-07T00:08:52;35.15;;;30.48;;
42702;SDS011;28341;52.064;4.920;2023-05-07T00:10:56;37.58;;;33.55;;
42702;SDS011;28341;52.064;4.920;2023-05-07T00:13:01;37.88;;;32.40;;
42702;SDS011;28341;52.064;4.920;2023-05-07T00:15:06;32.17;;;28.85;;
42702;SDS011;28341;52.064;4.920;2023-05-07T00:17:11;35.67;;;31.77;;
42702;SDS011;28341;52.064;4.920;2023-05-07T00:19:16;37.35;;;33.28;;
42702;SDS011;28341;52.064;4.920;2023-05-07T00:21:20;36.45;;;32.53;;
42702;SDS011;28341;52.064;4.920;2023-05-07T00:23:29;36.10;;;31.38;;
42702;SDS011;28341;52.064;4.920;2023-05-07T00:25:33;37.17;;;31.55;;
42702;SDS011;28341;52.064;4.920;2023-05-07T00:27:38;34.78;;;30.92;;
42702;SDS011;28341;52.064;4.920;2023-05-07T00:29:42;35.72;;;30.02;;
42702;SDS011;28341;52.064;4.920;2023-05-07T00:31:46;33.47;;;29.80;;
42702;SDS011;28341;52.064;4.920;2023-05-07T00:33:54;33.40;;;29.88;;
42702;SDS011;28341;52.064;4.920;2023-05-07T00:35:58;34.42;;;30.38;;
42702;SDS011;28341;52.064;4.920;2023-05-07T00:38:03;34.25;;;29.38;;
42702;SDS011;28341;52.064;4.920;2023-05-07T00:40:10;38.03;;;30.75;;
42702;SDS011;28341;52.064;4.920;2023-05-07T00:42:15;40.53;;;35.08;;
42702;SDS011;28341;52.064;4.920;2023-05-07T00:44:19;42.85;;;36.53;;
42702;SDS011;28341;52.064;4.920;2023-05-07T00:46:23;44.83;;;39.22;;
42702;SDS011;28341;52.064;4.920;2023-05-07T00:48:28;46.10;;;38.80;;
42702;SDS011;28341;52.064;4.920;2023-05-07T00:50:32;48.38;;;38.72;;
42702;SDS011;28341;52.064;4.920;2023-05-07T00:52:36;48.97;;;40.28;;
42702;SDS011;28341;52.064;4.920;2023-05-07T00:54:42;46.53;;;40.17;;
42702;SDS011;28341;52.064;4.920;2023-05-07T00:56:49;44.38;;;37.83;;
42702;SDS011;28341;52.064;4.920;2023-05-07T00:58:54;46.85;;;39.58;;
42702;SDS011;28341;52.064;4.920;2023-05-07T01:00:58;46.05;;;38.83;;
42702;SDS011;28341;52.064;4.920;2023-05-07T01:03:03;44.50;;;38.25;;
42702;SDS011;28341;52.064;4.920;2023-05-07T01:05:11;45.47;;;38.30;;
42702;SDS011;28341;52.064;4.920;2023-05-07T01:07:17;41.78;;;37.20;;
42702;SDS011;28341;52.064;4.920;2023-05-07T01:09:21;39.58;;;35.30;;
42702;SDS011;28341;52.064;4.920;2023-05-07T01:11:26;37.47;;;33.55;;
42702;SDS011;28341;52.064;4.920;2023-05-07T01:13:34;37.45;;;33.45;;
42702;SDS011;28341;52.064;4.920;2023-05-07T01:15:39;34.10;;;30.48;;
42702;SDS011;28341;52.064;4.920;2023-05-07T01:17:43;32.50;;;29.10;;
42702;SDS011;28341;52.064;4.920;2023-05-07T01:19:54;34.13;;;30.55;;
42702;SDS011;28341;52.064;4.920;2023-05-07T01:22:02;35.42;;;31.90;;
42702;SDS011;28341;52.064;4.920;2023-05-07T01:24:23;34.58;;;29.50;;
42702;SDS011;28341;52.064;4.920;2023-05-07T01:26:28;29.75;;;26.65;;
42702;SDS011;28341;52.064;4.920;2023-05-07T01:28:32;30.38;;;27.23;;
42702;SDS011;28341;52.064;4.920;2023-05-07T01:30:36;31.40;;;27.95;;
42702;SDS011;28341;52.064;4.920;2023-05-07T01:32:43;31.88;;;28.55;;
42702;SDS011;28341;52.064;4.920;2023-05-07T01:34:50;27.20;;;24.63;;
42702;SDS011;28341;52.064;4.920;2023-05-07T01:36:56;30.52;;;27.17;;
42702;SDS011;28341;52.064;4.920;2023-05-07T01:39:00;30.02;;;27.02;;
42702;SDS011;28341;52.064;4.920;2023-05-07T01:41:08;31.05;;;27.92;;
42702;SDS011;28341;52.064;4.920;2023-05-07T01:43:13;31.77;;;28.42;;
42702;SDS011;28341;52.064;4.920;2023-05-07T01:45:17;29.50;;;26.48;;
42702;SDS011;28341;52.064;4.920;2023-05-07T01:47:22;30.85;;;27.67;;
42702;SDS011;28341;52.064;4.920;2023-05-07T01:49:27;27.92;;;25.05;;
42702;SDS011;28341;52.064;4.920;2023-05-07T01:51:31;28.35;;;25.50;;
42702;SDS011;28341;52.064;4.920;2023-05-07T01:53:35;26.95;;;24.15;;
42702;SDS011;28341;52.064;4.920;2023-05-07T01:55:40;26.88;;;24.05;;
42702;SDS011;28341;52.064;4.920;2023-05-07T01:57:48;29.85;;;26.65;;
42702;SDS011;28341;52.064;4.920;2023-05-07T01:59:52;28.63;;;25.67;;
42702;SDS011;28341;52.064;4.920;2023-05-07T02:01:56;27.10;;;24.30;;
42702;SDS011;28341;52.064;4.920;2023-05-07T02:04:01;27.02;;;24.23;;
42702;SDS011;28341;52.064;4.920;2023-05-07T02:06:06;28.27;;;25.38;;
42702;SDS011;28341;52.064;4.920;2023-05-07T02:08:13;28.25;;;25.23;;
42702;SDS011;28341;52.064;4.920;2023-05-07T02:10:17;31.60;;;27.00;;
42702;SDS011;28341;52.064;4.920;2023-05-07T02:12:22;27.73;;;24.88;;
42702;SDS011;28341;52.064;4.920;2023-05-07T02:14:29;28.63;;;25.63;;
42702;SDS011;28341;52.064;4.920;2023-05-07T02:16:33;28.75;;;25.85;;
42702;SDS011;28341;52.064;4.920;2023-05-07T02:18:38;28.48;;;25.58;;
42702;SDS011;28341;52.064;4.920;2023-05-07T02:20:42;28.00;;;25.20;;
42702;SDS011;28341;52.064;4.920;2023-05-07T02:22:47;26.27;;;23.60;;
42702;SDS011;28341;52.064;4.920;2023-05-07T02:24:51;26.00;;;23.45;;
42702;SDS011;28341;52.064;4.920;2023-05-07T02:26:56;27.20;;;24.58;;
42702;SDS011;28341;52.064;4.920;2023-05-07T02:29:00;29.88;;;26.95;;
42702;SDS011;28341;52.064;4.920;2023-05-07T02:31:08;27.00;;;24.35;;
42702;SDS011;28341;52.064;4.920;2023-05-07T02:33:12;27.33;;;24.65;;
42702;SDS011;28341;52.064;4.920;2023-05-07T02:35:17;26.52;;;23.85;;
42702;SDS011;28341;52.064;4.920;2023-05-07T02:37:21;25.95;;;23.45;;
42702;SDS011;28341;52.064;4.920;2023-05-07T02:39:26;26.15;;;23.55;;
42702;SDS011;28341;52.064;4.920;2023-05-07T02:41:30;26.55;;;23.85;;
42702;SDS011;28341;52.064;4.920;2023-05-07T02:43:35;25.65;;;23.05;;
42702;SDS011;28341;52.064;4.920;2023-05-07T02:45:40;25.35;;;22.67;;
42702;SDS011;28341;52.064;4.920;2023-05-07T02:47:49;25.33;;;22.75;;
42702;SDS011;28341;52.064;4.920;2023-05-07T02:49:53;26.17;;;23.48;;
42702;SDS011;28341;52.064;4.920;2023-05-07T02:51:58;25.35;;;22.98;;
42702;SDS011;28341;52.064;4.920;2023-05-07T02:54:02;26.20;;;23.50;;
42702;SDS011;28341;52.064;4.920;2023-05-07T02:56:07;23.88;;;21.52;;
42702;SDS011;28341;52.064;4.920;2023-05-07T02:58:11;24.83;;;22.38;;
42702;SDS011;28341;52.064;4.920;2023-05-07T03:00:17;25.20;;;22.58;;
42702;SDS011;28341;52.064;4.920;2023-05-07T03:02:43;24.33;;;21.85;;
42702;SDS011;28341;52.064;4.920;2023-05-07T03:04:50;24.05;;;21.38;;
42702;SDS011;28341;52.064;4.920;2023-05-07T03:06:54;23.48;;;21.17;;
42702;SDS011;28341;52.064;4.920;2023-05-07T03:08:59;23.95;;;21.23;;
42702;SDS011;28341;52.064;4.920;2023-05-07T03:11:04;23.33;;;20.95;;
42702;SDS011;28341;52.064;4.920;2023-05-07T03:13:08;23.45;;;21.25;;
42702;SDS011;28341;52.064;4.920;2023-05-07T03:15:13;23.92;;;21.55;;
42702;SDS011;28341;52.064;4.920;2023-05-07T03:17:17;21.05;;;19.05;;
42702;SDS011;28341;52.064;4.920;2023-05-07T03:19:22;23.90;;;20.30;;
42702;SDS011;28341;52.064;4.920;2023-05-07T03:21:29;22.35;;;19.98;;
42702;SDS011;28341;52.064;4.920;2023-05-07T03:23:34;21.77;;;19.50;;
42702;SDS011;28341;52.064;4.920;2023-05-07T03:25:39;21.48;;;19.23;;
42702;SDS011;28341;52.064;4.920;2023-05-07T03:27:43;22.67;;;20.30;;
42702;SDS011;28341;52.064;4.920;2023-05-07T03:29:48;21.48;;;19.00;;
42702;SDS011;28341;52.064;4.920;2023-05-07T03:31:52;23.67;;;21.08;;
42702;SDS011;28341;52.064;4.920;2023-05-07T03:33:57;24.73;;;22.13;;
42702;SDS011;28341;52.064;4.920;2023-05-07T03:36:02;22.77;;;20.40;;
42702;SDS011;28341;52.064;4.920;2023-05-07T03:38:10;23.70;;;21.33;;
42702;SDS011;28341;52.064;4.920;2023-05-07T03:40:14;24.77;;;22.33;;
42702;SDS011;28341;52.064;4.920;2023-05-07T03:42:23;22.77;;;20.48;;
42702;SDS011;28341;52.064;4.920;2023-05-07T03:44:27;24.60;;;22.15;;
42702;SDS011;28341;52.064;4.920;2023-05-07T03:46:34;24.08;;;21.77;;
42702;SDS011;28341;52.064;4.920;2023-05-07T03:48:38;22.95;;;20.58;;
42702;SDS011;28341;52.064;4.920;2023-05-07T03:50:43;22.33;;;20.30;;
42702;SDS011;28341;52.064;4.920;2023-05-07T03:52:50;22.63;;;20.40;;
42702;SDS011;28341;52.064;4.920;2023-05-07T03:54:59;22.85;;;20.65;;
42702;SDS011;28341;52.064;4.920;2023-05-07T03:57:06;22.20;;;19.98;;
42702;SDS011;28341;52.064;4.920;2023-05-07T03:59:11;22.70;;;20.60;;
42702;SDS011;28341;52.064;4.920;2023-05-07T04:01:17;23.08;;;20.63;;
42702;SDS011;28341;52.064;4.920;2023-05-07T04:03:22;23.08;;;20.05;;
42702;SDS011;28341;52.064;4.920;2023-05-07T04:05:27;22.63;;;20.33;;
42702;SDS011;28341;52.064;4.920;2023-05-07T04:07:35;22.30;;;20.00;;
42702;SDS011;28341;52.064;4.920;2023-05-07T04:09:41;22.85;;;20.58;;
42702;SDS011;28341;52.064;4.920;2023-05-07T04:11:48;24.58;;;22.13;;
42702;SDS011;28341;52.064;4.920;2023-05-07T04:13:52;23.50;;;21.08;;
42702;SDS011;28341;52.064;4.920;2023-05-07T04:16:00;24.58;;;21.60;;
42702;SDS011;28341;52.064;4.920;2023-05-07T04:18:08;28.02;;;24.70;;
42702;SDS011;28341;52.064;4.920;2023-05-07T04:20:15;26.80;;;23.98;;
42702;SDS011;28341;52.064;4.920;2023-05-07T04:22:28;24.77;;;21.48;;
42702;SDS011;28341;52.064;4.920;2023-05-07T04:24:32;22.92;;;20.83;;
42702;SDS011;28341;52.064;4.920;2023-05-07T04:26:37;23.85;;;21.65;;
42702;SDS011;28341;52.064;4.920;2023-05-07T04:28:45;23.45;;;21.23;;
42702;SDS011;28341;52.064;4.920;2023-05-07T04:30:49;24.73;;;22.13;;
42702;SDS011;28341;52.064;4.920;2023-05-07T04:32:55;26.10;;;23.50;;
42702;SDS011;28341;52.064;4.920;2023-05-07T04:35:02;26.98;;;24.27;;
42702;SDS011;28341;52.064;4.920;2023-05-07T04:37:08;29.02;;;26.05;;
42702;SDS011;28341;52.064;4.920;2023-05-07T04:39:12;30.75;;;25.25;;
42702;SDS011;28341;52.064;4.920;2023-05-07T04:41:20;28.60;;;25.70;;
42702;SDS011;28341;52.064;4.920;2023-05-07T04:43:24;31.45;;;28.05;;
42702;SDS011;28341;52.064;4.920;2023-05-07T04:45:31;27.75;;;24.75;;
42702;SDS011;28341;52.064;4.920;2023-05-07T04:47:36;28.55;;;25.38;;
42702;SDS011;28341;52.064;4.920;2023-05-07T04:49:40;30.67;;;27.52;;
42702;SDS011;28341;52.064;4.920;2023-05-07T04:51:46;30.63;;;27.48;;
42702;SDS011;28341;52.064;4.920;2023-05-07T04:53:53;34.40;;;30.83;;
42702;SDS011;28341;52.064;4.920;2023-05-07T04:55:58;30.02;;;27.08;;
42702;SDS011;28341;52.064;4.920;2023-05-07T04:58:09;32.40;;;29.02;;
42702;SDS011;28341;52.064;4.920;2023-05-07T05:00:15;32.05;;;28.38;;
42702;SDS011;28341;52.064;4.920;2023-05-07T05:02:25;32.65;;;29.40;;
42702;SDS011;28341;52.064;4.920;2023-05-07T05:04:29;30.98;;;27.77;;
42702;SDS011;28341;52.064;4.920;2023-05-07T05:06:34;37.45;;;33.47;;
42702;SDS011;28341;52.064;4.920;2023-05-07T05:08:40;32.78;;;28.83;;
42702;SDS011;28341;52.064;4.920;2023-05-07T05:10:44;34.03;;;30.50;;
42702;SDS011;28341;52.064;4.920;2023-05-07T05:12:49;36.03;;;31.33;;
42702;SDS011;28341;52.064;4.920;2023-05-07T05:14:55;35.60;;;31.67;;
42702;SDS011;28341;52.064;4.920;2023-05-07T05:16:59;33.33;;;29.88;;
42702;SDS011;28341;52.064;4.920;2023-05-07T05:19:06;35.53;;;31.27;;
42702;SDS011;28341;52.064;4.920;2023-05-07T05:21:13;33.15;;;29.55;;
42702;SDS011;28341;52.064;4.920;2023-05-07T05:23:20;33.00;;;28.58;;
42702;SDS011;28341;52.064;4.920;2023-05-07T05:25:25;37.80;;;33.33;;
42702;SDS011;28341;52.064;4.920;2023-05-07T05:27:30;33.33;;;29.85;;
42702;SDS011;28341;52.064;4.920;2023-05-07T05:29:35;36.53;;;31.70;;
42702;SDS011;28341;52.064;4.920;2023-05-07T05:31:40;37.17;;;33.30;;
42702;SDS011;28341;52.064;4.920;2023-05-07T05:33:45;35.38;;;31.77;;
42702;SDS011;28341;52.064;4.920;2023-05-07T05:35:53;39.92;;;35.38;;
42702;SDS011;28341;52.064;4.920;2023-05-07T05:37:57;40.15;;;34.50;;
42702;SDS011;28341;52.064;4.920;2023-05-07T05:40:02;35.05;;;31.45;;
42702;SDS011;28341;52.064;4.920;2023-05-07T05:42:08;42.85;;;37.03;;
42702;SDS011;28341;52.064;4.920;2023-05-07T05:44:13;38.60;;;34.45;;
42702;SDS011;28341;52.064;4.920;2023-05-07T05:46:17;36.72;;;32.83;;
42702;SDS011;28341;52.064;4.920;2023-05-07T05:48:24;37.60;;;33.53;;
42702;SDS011;28341;52.064;4.920;2023-05-07T05:50:29;38.38;;;34.38;;
42702;SDS011;28341;52.064;4.920;2023-05-07T05:52:36;36.47;;;32.75;;
42702;SDS011;28341;52.064;4.920;2023-05-07T05:54:41;40.15;;;35.92;;
42702;SDS011;28341;52.064;4.920;2023-05-07T05:56:45;38.75;;;34.55;;
42702;SDS011;28341;52.064;4.920;2023-05-07T05:58:50;40.13;;;35.83;;
42702;SDS011;28341;52.064;4.920;2023-05-07T06:00:54;39.05;;;34.97;;
42702;SDS011;28341;52.064;4.920;2023-05-07T06:03:00;41.33;;;36.88;;
42702;SDS011;28341;52.064;4.920;2023-05-07T06:05:05;40.58;;;36.33;;
42702;SDS011;28341;52.064;4.920;2023-05-07T06:07:11;40.17;;;35.83;;
42702;SDS011;28341;52.064;4.920;2023-05-07T06:09:18;40.78;;;35.30;;
42702;SDS011;28341;52.064;4.920;2023-05-07T06:11:22;37.60;;;33.60;;
42702;SDS011;28341;52.064;4.920;2023-05-07T06:13:27;38.95;;;34.78;;
42702;SDS011;28341;52.064;4.920;2023-05-07T06:15:31;37.25;;;33.20;;
42702;SDS011;28341;52.064;4.920;2023-05-07T06:17:41;36.83;;;33.08;;
42702;SDS011;28341;52.064;4.920;2023-05-07T06:19:45;36.20;;;32.33;;
42702;SDS011;28341;52.064;4.920;2023-05-07T06:21:52;36.03;;;32.45;;
42702;SDS011;28341;52.064;4.920;2023-05-07T06:23:57;38.20;;;34.20;;
42702;SDS011;28341;52.064;4.920;2023-05-07T06:26:05;36.88;;;32.97;;
42702;SDS011;28341;52.064;4.920;2023-05-07T06:28:14;39.30;;;33.10;;
42702;SDS011;28341;52.064;4.920;2023-05-07T06:30:19;33.15;;;29.77;;
42702;SDS011;28341;52.064;4.920;2023-05-07T06:32:24;33.72;;;30.20;;
42702;SDS011;28341;52.064;4.920;2023-05-07T06:34:29;34.20;;;30.50;;
42702;SDS011;28341;52.064;4.920;2023-05-07T06:36:35;34.20;;;30.63;;
42702;SDS011;28341;52.064;4.920;2023-05-07T06:38:50;34.50;;;31.00;;
42702;SDS011;28341;52.064;4.920;2023-05-07T06:40:55;36.40;;;32.50;;
42702;SDS011;28341;52.064;4.920;2023-05-07T06:43:02;36.60;;;32.72;;
42702;SDS011;28341;52.064;4.920;2023-05-07T06:45:29;35.47;;;31.67;;
42702;SDS011;28341;52.064;4.920;2023-05-07T06:47:34;36.13;;;31.85;;
42702;SDS011;28341;52.064;4.920;2023-05-07T06:49:38;36.33;;;32.45;;
42702;SDS011;28341;52.064;4.920;2023-05-07T06:51:43;38.25;;;33.58;;
42702;SDS011;28341;52.064;4.920;2023-05-07T06:53:47;39.10;;;35.10;;
42702;SDS011;28341;52.064;4.920;2023-05-07T06:55:52;36.60;;;32.80;;
42702;SDS011;28341;52.064;4.920;2023-05-07T06:57:56;41.70;;;33.60;;
42702;SDS011;28341;52.064;4.920;2023-05-07T07:00:05;35.10;;;31.55;;
42702;SDS011;28341;52.064;4.920;2023-05-07T07:02:20;37.10;;;33.17;;
42702;SDS011;28341;52.064;4.920;2023-05-07T07:04:25;39.90;;;34.42;;
42702;SDS011;28341;52.064;4.920;2023-05-07T07:06:36;36.88;;;32.95;;
42702;SDS011;28341;52.064;4.920;2023-05-07T07:08:44;32.72;;;29.33;;
42702;SDS011;28341;52.064;4.920;2023-05-07T07:10:50;36.47;;;32.80;;
42702;SDS011;28341;52.064;4.920;2023-05-07T07:12:55;37.78;;;32.58;;
42702;SDS011;28341;52.064;4.920;2023-05-07T07:15:00;36.13;;;32.33;;
42702;SDS011;28341;52.064;4.920;2023-05-07T07:17:07;41.38;;;36.92;;
42702;SDS011;28341;52.064;4.920;2023-05-07T07:19:12;40.25;;;36.20;;
42702;SDS011;28341;52.064;4.920;2023-05-07T07:21:19;39.50;;;33.35;;
42702;SDS011;28341;52.064;4.920;2023-05-07T07:23:23;39.47;;;35.30;;
42702;SDS011;28341;52.064;4.920;2023-05-07T07:25:28;39.42;;;34.35;;
42702;SDS011;28341;52.064;4.920;2023-05-07T07:27:32;34.35;;;30.92;;
42702;SDS011;28341;52.064;4.920;2023-05-07T07:29:37;37.15;;;33.35;;
42702;SDS011;28341;52.064;4.920;2023-05-07T07:31:44;40.30;;;34.70;;
42702;SDS011;28341;52.064;4.920;2023-05-07T07:33:49;34.67;;;31.17;;
42702;SDS011;28341;52.064;4.920;2023-05-07T07:35:55;33.92;;;30.15;;
42702;SDS011;28341;52.064;4.920;2023-05-07T07:37:59;34.60;;;31.08;;
42702;SDS011;28341;52.064;4.920;2023-05-07T07:40:05;34.03;;;30.45;;
42702;SDS011;28341;52.064;4.920;2023-05-07T07:42:11;34.20;;;30.65;;
42702;SDS011;28341;52.064;4.920;2023-05-07T07:44:15;33.97;;;30.20;;
42702;SDS011;28341;52.064;4.920;2023-05-07T07:46:25;31.90;;;28.38;;
42702;SDS011;28341;52.064;4.920;2023-05-07T07:48:32;32.05;;;28.70;;
42702;SDS011;28341;52.064;4.920;2023-05-07T07:50:38;30.73;;;27.42;;
42702;SDS011;28341;52.064;4.920;2023-05-07T07:52:43;30.42;;;27.45;;
42702;SDS011;28341;52.064;4.920;2023-05-07T07:54:49;30.17;;;26.98;;
42702;SDS011;28341;52.064;4.920;2023-05-07T07:56:55;30.75;;;27.70;;
42702;SDS011;28341;52.064;4.920;2023-05-07T07:59:00;30.00;;;26.83;;
42702;SDS011;28341;52.064;4.920;2023-05-07T08:01:06;31.98;;;28.60;;
42702;SDS011;28341;52.064;4.920;2023-05-07T08:03:12;48.00;;;42.80;;
42702;SDS011;28341;52.064;4.920;2023-05-07T08:05:24;68.10;;;60.25;;
42702;SDS011;28341;52.064;4.920;2023-05-07T08:07:29;46.70;;;41.85;;
42702;SDS011;28341;52.064;4.920;2023-05-07T08:09:33;33.03;;;28.20;;
42702;SDS011;28341;52.064;4.920;2023-05-07T08:11:38;28.63;;;25.45;;
42702;SDS011;28341;52.064;4.920;2023-05-07T08:13:43;31.40;;;28.02;;
42702;SDS011;28341;52.064;4.920;2023-05-07T08:15:48;28.15;;;24.67;;
42702;SDS011;28341;52.064;4.920;2023-05-07T08:17:53;29.13;;;24.80;;
42702;SDS011;28341;52.064;4.920;2023-05-07T08:19:58;26.10;;;23.50;;
42702;SDS011;28341;52.064;4.920;2023-05-07T08:22:06;26.48;;;23.40;;
42702;SDS011;28341;52.064;4.920;2023-05-07T08:24:11;24.48;;;20.73;;
42702;SDS011;28341;52.064;4.920;2023-05-07T08:26:15;22.90;;;20.50;;
42702;SDS011;28341;52.064;4.920;2023-05-07T08:28:21;23.10;;;20.00;;
42702;SDS011;28341;52.064;4.920;2023-05-07T08:30:26;21.77;;;19.50;;
42702;SDS011;28341;52.064;4.920;2023-05-07T08:32:30;23.77;;;20.17;;
42702;SDS011;28341;52.064;4.920;2023-05-07T08:34:35;22.00;;;19.35;;
42702;SDS011;28341;52.064;4.920;2023-05-07T08:36:40;21.98;;;19.63;;
42702;SDS011;28341;52.064;4.920;2023-05-07T08:38:51;22.40;;;19.95;;
42702;SDS011;28341;52.064;4.920;2023-05-07T08:40:56;21.67;;;19.38;;
42702;SDS011;28341;52.064;4.920;2023-05-07T08:43:02;20.17;;;18.17;;
42702;SDS011;28341;52.064;4.920;2023-05-07T08:45:09;21.73;;;18.40;;
42702;SDS011;28341;52.064;4.920;2023-05-07T08:47:17;21.33;;;17.77;;
42702;SDS011;28341;52.064;4.920;2023-05-07T08:49:23;21.05;;;17.67;;
42702;SDS011;28341;52.064;4.920;2023-05-07T08:51:28;18.63;;;16.48;;
42702;SDS011;28341;52.064;4.920;2023-05-07T08:53:33;20.80;;;18.60;;
42702;SDS011;28341;52.064;4.920;2023-05-07T08:55:41;20.70;;;17.42;;
42702;SDS011;28341;52.064;4.920;2023-05-07T08:57:45;20.20;;;17.65;;
42702;SDS011;28341;52.064;4.920;2023-05-07T08:59:51;19.50;;;17.58;;
42702;SDS011;28341;52.064;4.920;2023-05-07T09:01:55;20.25;;;18.17;;
42702;SDS011;28341;52.064;4.920;2023-05-07T09:04:00;19.95;;;17.15;;
42702;SDS011;28341;52.064;4.920;2023-05-07T09:06:06;20.23;;;17.08;;
42702;SDS011;28341;52.064;4.920;2023-05-07T09:08:13;21.60;;;16.85;;
42702;SDS011;28341;52.064;4.920;2023-05-07T09:10:21;20.13;;;15.40;;
42702;SDS011;28341;52.064;4.920;2023-05-07T09:12:28;18.30;;;16.50;;
42702;SDS011;28341;52.064;4.920;2023-05-07T09:14:35;17.55;;;15.80;;
42702;SDS011;28341;52.064;4.920;2023-05-07T09:16:41;19.65;;;17.38;;
42702;SDS011;28341;52.064;4.920;2023-05-07T09:18:45;18.33;;;15.93;;
42702;SDS011;28341;52.064;4.920;2023-05-07T09:20:50;16.38;;;14.43;;
42702;SDS011;28341;52.064;4.920;2023-05-07T09:22:55;16.92;;;15.15;;
42702;SDS011;28341;52.064;4.920;2023-05-07T09:25:01;18.45;;;15.55;;
42702;SDS011;28341;52.064;4.920;2023-05-07T09:27:06;16.77;;;14.13;;
42702;SDS011;28341;52.064;4.920;2023-05-07T09:29:16;15.82;;;14.07;;
42702;SDS011;28341;52.064;4.920;2023-05-07T09:31:21;16.05;;;14.43;;
42702;SDS011;28341;52.064;4.920;2023-05-07T09:33:28;19.95;;;14.75;;
42702;SDS011;28341;52.064;4.920;2023-05-07T09:35:37;24.73;;;22.13;;
42702;SDS011;28341;52.064;4.920;2023-05-07T09:37:46;21.80;;;16.88;;
42702;SDS011;28341;52.064;4.920;2023-05-07T09:39:50;22.50;;;19.60;;
42702;SDS011;28341;52.064;4.920;2023-05-07T09:41:57;17.30;;;14.20;;
42702;SDS011;28341;52.064;4.920;2023-05-07T09:44:08;15.68;;;13.85;;
42702;SDS011;28341;52.064;4.920;2023-05-07T09:46:20;16.23;;;13.30;;
42702;SDS011;28341;52.064;4.920;2023-05-07T09:48:35;17.73;;;13.15;;
42702;SDS011;28341;52.064;4.920;2023-05-07T09:50:45;16.90;;;13.63;;
42702;SDS011;28341;52.064;4.920;2023-05-07T09:52:56;15.23;;;13.73;;
42702;SDS011;28341;52.064;4.920;2023-05-07T09:55:01;15.48;;;12.70;;
42702;SDS011;28341;52.064;4.920;2023-05-07T09:57:07;14.48;;;12.00;;
42702;SDS011;28341;52.064;4.920;2023-05-07T09:59:15;14.25;;;12.23;;
42702;SDS011;28341;52.064;4.920;2023-05-07T10:01:24;15.85;;;12.40;;
42702;SDS011;28341;52.064;4.920;2023-05-07T10:03:29;14.15;;;12.27;;
42702;SDS011;28341;52.064;4.920;2023-05-07T10:05:39;14.45;;;12.07;;
42702;SDS011;28341;52.064;4.920;2023-05-07T10:07:45;13.98;;;11.82;;
42702;SDS011;28341;52.064;4.920;2023-05-07T10:09:51;12.45;;;10.27;;
42702;SDS011;28341;52.064;4.920;2023-05-07T10:12:07;10.88;;;9.20;;
42702;SDS011;28341;52.064;4.920;2023-05-07T10:14:12;11.50;;;8.63;;
42702;SDS011;28341;52.064;4.920;2023-05-07T10:16:18;12.18;;;9.57;;
42702;SDS011;28341;52.064;4.920;2023-05-07T10:18:26;14.70;;;9.32;;
42702;SDS011;28341;52.064;4.920;2023-05-07T10:20:37;11.35;;;8.65;;
42702;SDS011;28341;52.064;4.920;2023-05-07T10:22:46;15.93;;;11.48;;
42702;SDS011;28341;52.064;4.920;2023-05-07T10:24:57;11.10;;;9.20;;
42702;SDS011;28341;52.064;4.920;2023-05-07T10:27:04;10.10;;;7.45;;
42702;SDS011;28341;52.064;4.920;2023-05-07T10:29:14;11.88;;;7.03;;
42702;SDS011;28341;52.064;4.920;2023-05-07T10:34:02;12.25;;;6.95;;
42702;SDS011;28341;52.064;4.920;2023-05-07T10:36:11;11.82;;;7.47;;
42702;SDS011;28341;52.064;4.920;2023-05-07T10:38:16;14.25;;;7.30;;
42702;SDS011;28341;52.064;4.920;2023-05-07T10:40:21;10.93;;;7.53;;
42702;SDS011;28341;52.064;4.920;2023-05-07T10:42:27;11.45;;;7.25;;
42702;SDS011;28341;52.064;4.920;2023-05-07T10:44:32;8.85;;;6.10;;
42702;SDS011;28341;52.064;4.920;2023-05-07T10:46:40;10.90;;;6.60;;
42702;SDS011;28341;52.064;4.920;2023-05-07T10:49:09;11.55;;;7.03;;
42702;SDS011;28341;52.064;4.920;2023-05-07T10:51:26;9.55;;;6.55;;
42702;SDS011;28341;52.064;4.920;2023-05-07T10:53:42;10.32;;;6.63;;
42702;SDS011;28341;52.064;4.920;2023-05-07T10:55:52;9.10;;;4.60;;
42702;SDS011;28341;52.064;4.920;2023-05-07T10:58:40;9.23;;;5.35;;
42702;SDS011;28341;52.064;4.920;2023-05-07T11:00:55;10.93;;;5.05;;
42702;SDS011;28341;52.064;4.920;2023-05-07T11:03:07;8.43;;;4.63;;
42702;SDS011;28341;52.064;4.920;2023-05-07T11:05:20;9.02;;;5.60;;
42702;SDS011;28341;52.064;4.920;2023-05-07T11:07:47;8.52;;;6.45;;
42702;SDS011;28341;52.064;4.920;2023-05-07T11:10:04;9.25;;;6.53;;
42702;SDS011;28341;52.064;4.920;2023-05-07T11:12:50;9.70;;;6.00;;
42702;SDS011;28341;52.064;4.920;2023-05-07T11:15:11;9.93;;;5.75;;
42702;SDS011;28341;52.064;4.920;2023-05-07T11:17:16;8.50;;;5.38;;
42702;SDS011;28341;52.064;4.920;2023-05-07T11:22:04;7.78;;;4.88;;
42702;SDS011;28341;52.064;4.920;2023-05-07T11:24:15;8.55;;;5.43;;
42702;SDS011;28341;52.064;4.920;2023-05-07T11:26:43;8.85;;;6.22;;
42702;SDS011;28341;52.064;4.920;2023-05-07T11:28:52;7.35;;;5.03;;
42702;SDS011;28341;52.064;4.920;2023-05-07T11:30:59;9.13;;;5.45;;
42702;SDS011;28341;52.064;4.920;2023-05-07T11:33:04;7.78;;;5.32;;
42702;SDS011;28341;52.064;4.920;2023-05-07T11:35:09;10.00;;;5.78;;
42702;SDS011;28341;52.064;4.920;2023-05-07T11:37:16;9.88;;;5.95;;
42702;SDS011;28341;52.064;4.920;2023-05-07T11:39:32;7.53;;;5.25;;
42702;SDS011;28341;52.064;4.920;2023-05-07T11:41:36;8.77;;;5.10;;
42702;SDS011;28341;52.064;4.920;2023-05-07T11:43:58;9.50;;;5.07;;
42702;SDS011;28341;52.064;4.920;2023-05-07T11:46:07;7.40;;;4.55;;
42702;SDS011;28341;52.064;4.920;2023-05-07T11:48:14;9.07;;;4.38;;
42702;SDS011;28341;52.064;4.920;2023-05-07T11:50:19;7.80;;;4.05;;
42702;SDS011;28341;52.064;4.920;2023-05-07T11:52:24;8.88;;;3.75;;
42702;SDS011;28341;52.064;4.920;2023-05-07T11:54:34;9.70;;;3.90;;
42702;SDS011;28341;52.064;4.920;2023-05-07T11:56:39;8.68;;;4.95;;
42702;SDS011;28341;52.064;4.920;2023-05-07T11:58:44;11.40;;;4.95;;
42702;SDS011;28341;52.064;4.920;2023-05-07T12:00:54;9.55;;;5.32;;
42702;SDS011;28341;52.064;4.920;2023-05-07T12:03:02;7.50;;;4.47;;
42702;SDS011;28341;52.064;4.920;2023-05-07T12:05:08;8.15;;;4.93;;
42702;SDS011;28341;52.064;4.920;2023-05-07T12:07:13;7.82;;;5.10;;
42702;SDS011;28341;52.064;4.920;2023-05-07T12:09:18;6.15;;;4.90;;
42702;SDS011;28341;52.064;4.920;2023-05-07T12:11:23;8.68;;;5.90;;
42702;SDS011;28341;52.064;4.920;2023-05-07T12:13:28;9.07;;;6.03;;
42702;SDS011;28341;52.064;4.920;2023-05-07T12:15:34;8.13;;;5.65;;
42702;SDS011;28341;52.064;4.920;2023-05-07T12:17:41;7.82;;;5.57;;
42702;SDS011;28341;52.064;4.920;2023-05-07T12:19:46;8.65;;;5.93;;
42702;SDS011;28341;52.064;4.920;2023-05-07T12:21:50;9.05;;;5.82;;
42702;SDS011;28341;52.064;4.920;2023-05-07T12:23:55;7.00;;;5.65;;
42702;SDS011;28341;52.064;4.920;2023-05-07T12:25:59;7.90;;;5.80;;
42702;SDS011;28341;52.064;4.920;2023-05-07T12:28:05;11.60;;;6.43;;
42702;SDS011;28341;52.064;4.920;2023-05-07T12:30:14;30.92;;;27.58;;